Aérodrome :
LOGIN :

S'inscrire | Disclaimer

   EN    FR    IT 

 










Légende :    VFR   VFR Marginal   IFR   IFR Intensif   IFR Très Intensif
Visi : 
Plafond : 
>= 8 km
>= 3000ft
5 à 8 km
1000 à 3000 ft
1500m à 5 km
500 à 1000 ft
800 à 1500m
200 à 500 ft
< 800m
< 200 ft
Symboles :   Orages  Brouillard  Fortes neiges  Fortes précipitations  Vent > 20 kt
SIGMETs :   Divers  Orages  Givrage  Turbulence  Onde Orograph.  Cendres Volcan.







- Altitude de l'aérodrome : 219 ft
- Code IATA : DNR
- Voir les cartes d'approche


LFRD - Dinard

DERNIER METAR :
  • 200930Z AUTO 04004KT 330V090 CAVOK 17/11 Q1021 NOSIG

METARs EXPIRÉS :
  • 200900Z AUTO VRB03KT CAVOK 17/11 Q1021 NOSIG
  • 200830Z AUTO 06004KT 350V130 CAVOK 16/10 Q1021 NOSIG
  • 200800Z AUTO 06004KT 020V090 CAVOK 15/10 Q1021 NOSIG
  • 200730Z AUTO 05004KT 020V100 CAVOK 14/09 Q1021 NOSIG
  • 200700Z AUTO 06005KT CAVOK 13/09 Q1021 NOSIG

TAF TAF LFRD
Valide du 20 à 06h jusqu'au 21 à 06h UTC


200500Z 2006/2106 VRB03KT CAVOK
TEMPO 2006/2008 4000 BR
BECMG 2011/2013 02010KT
BECMG 2021/2024 VRB03KT 3000 BR
PROB40
TEMPO 2102/2106 0500 FG BKN002
ATIS : +33 2 99 16 81 50
Pas de NOTAMs connus pour ce terrain.



MET'MAP, la Météo Aéronautique d'un coup d'oeil ! - Copyright ORBIFLY Décembre 2007 - Disclaimer

ORBIFLY MET'MAP TEAM :

Programmation & Développement : Alexandra Zaïnal
Conception & Développement : Baudouin d'Aumeries
Co-Programmation & Développement : Marc-Olivier Méhu
Soutien technique & logistique : Manuel Goepfert

Contact : metmap@orbifly.com




SOURCES & CREDITS :

   NOAA